Weather forecast for Torococo

Venezuela, 552 m
N9.592, E-70.400


Sounding

Red line — air temperature ˚C.
Blue line — thermal bubble temperature ˚C.
Green line — dew point temperature ˚C.
Wind speed is in meters per second.

Table forecast

GFS 0.25˚ model

temp. wind gust humid. clouds prec. press. hpbl
Wed18 00:00 22 130.0 se 2 2 88 79 1.9 1012 31
03:00 21 128.0 se 2 2 85 59 2.1 1010 31
06:00 21 131.0 se 1 1 85 95 0.0 1009 24
09:00 24 125.0 se 0 1 77 98 0.0 1011 122
12:00 29 294.0 wnw 2 2 60 100 0.1 1010 970
15:00 30 282.0 wnw 3 2 57 100 0.3 1007 1264
18:00 27 223.0 sw 1 1 76 100 3.6 1006 487
21:00 24 115.0 ese 1 1 86 100 4.9 1008 26
 
Thu19 00:00 22 123.0 ese 2 2 89 100 3.6 1010 31
03:00 22 117.0 ese 2 2 89 100 5.7 1009 39
06:00 21 201.0 ssw 1 1 88 100 0.1 1009 25
09:00 22 352.0 n 1 1 92 100 0.3 1010 134
12:00 25 298.0 wnw 2 3 81 100 0.8 1011 620
15:00 25 258.0 wsw 1 2 81 100 4.3 1008 606
18:00 22 77.0 ene 1 2 97 100 4.0 1008 118
21:00 22 87.0 e 1 2 93 100 5.0 1010 42
 
Fri20 00:00 22 111.0 ese 1 2 88 100 0.4 1011 28
03:00 21 110.0 ese 1 2 91 100 1.4 1011 31
06:00 21 142.0 se 1 1 89 100 0.0 1011 26
09:00 23 143.0 se 0 1 83 99 0.0 1014 96
12:00 28 311.0 nw 2 1 65 100 0.4 1013 672
15:00 30 318.0 nw 1 1 57 100 2.6 1011 1092
18:00 26 310.0 nw 1 2 82 100 3.4 1010 176
21:00 22 183.0 s 1 1 96 100 12.7 1012 65
 
Sat21 00:00 22 106.0 ese 1 1 93 100 0.6 1014 25
03:00 22 158.0 sse 1 1 90 100 0.7 1012 24
06:00 21 150.0 sse 1 1 91 95 0.4 1013 23
09:00 22 31.0 nne 0 0 88 81 2.3 1014 118
12:00 27 297.0 wnw 2 2 72 89 0.3 1014 676
15:00 27 263.0 w 2 2 80 87 3.3 1011 630
18:00 25 258.0 wsw 2 2 86 84 3.1 1010 411
21:00 22 128.0 se 1 1 95 91 7.5 1011 34
 
Sun22 00:00 21 133.0 se 2 2 90 54 3.3 1013 28
03:00 20 129.0 se 2 2 86 75 3.3 1012 27
06:00 20 130.0 se 2 2 81 73 0.1 1011 29
09:00 23 119.0 ese 1 1 72 86 0.3 1014 60
12:00 28 296.0 wnw 2 2 66 100 0.1 1013 786
15:00 28 269.0 w 2 2 71 100 3.8 1010 916
18:00 26 267.0 w 1 3 86 86 9.7 1009 183
21:00 22 146.0 se 2 2 91 88 12.6 1011 28
 

0.030 s